Brookhaven Weather

Current Time: 05:10 Zulu

HWV METARs

Local Time Temperature Dew Point Wind Direction Wind Speed Wind Gust Sky Vis.
10/18/2017 4:56:00 AM 8.3° c 5.6° c variable 0 kt - CLR 10.0 sm
10/18/2017 3:56:00 AM 6.1° c 4.4° c variable 0 kt - CLR 10.0 sm
10/18/2017 2:56:00 AM 7.2° c 5.0° c variable 0 kt - CLR 10.0 sm
10/18/2017 1:56:00 AM 7.8° c 5.0° c variable 0 kt - CLR 10.0 sm

ISP TAF:

KISP 180236Z 1803/1824 VRB05KT P6SM SKC 
FM181300 29006KT P6SM SKC 
FM182000 22008KT P6SM SKC
Weather data provided by aviationweather.gov. Pilots must verify weather before flying.